RDD weather

Redding Municipal Airport
Redding, California, United States

Public forecast

Using degrees Fahrenheit for public forecast. Weather courtesy of forecast.io.

METAR (pilot weather report)

Retrieved 2019/08/19 18:53 UTC (51 minutes ago):

KRDD 191853Z 00000KT 10SM CLR 29/12 A2991 RMK AO2 SLP122 T02940117

TAF (pilot weather forecast)

Retrieved 2019/08/19 18:46 UTC (58 minutes ago):

TAF KRDD 191744Z 1918/2018 VRB03KT P6SM SKC FM192100 18010KT P6SM SKC FM200800 VRB03KT P6SM SKC